Time;durP1;ratioP1;P1;durP2;ratioP2;P2;SDS_P1;SDS_P2;PMS_P1;PMS_P2;Temp;Humidity;BMP_temperature;BMP_pressure;BME280_temperature;BME280_humidity;BME280_pressure;Samples;Min_cycle;Max_cycle;Signal;HPM_P1;HPM_P2
2021/04/17 00:01:34;;;;;;;13.35;9.88;;;;;;;10.28;67.67;100406.53;5069343;28;20028;-23
2021/04/17 00:04:01;;;;;;;12.15;9.02;;;;;;;10.22;67.53;100407.38;5068411;28;20027;-22
2021/04/17 00:06:27;;;;;;;11.73;8.40;;;;;;;10.29;67.03;100394.81;5068950;28;20560;-23
2021/04/17 00:08:52;;;;;;;13.25;9.07;;;;;;;10.65;66.50;100422.88;5051271;28;20108;-23
2021/04/17 00:11:18;;;;;;;14.40;9.38;;;;;;;10.85;66.17;100415.59;5069132;28;20063;-22
2021/04/17 00:13:43;;;;;;;15.05;8.55;;;;;;;10.70;66.34;100417.69;5034472;28;20047;-22
2021/04/17 00:16:09;;;;;;;13.27;9.10;;;;;;;10.75;65.13;100423.25;5068996;28;20508;-23
2021/04/17 00:18:34;;;;;;;12.82;9.07;;;;;;;10.57;65.98;100423.91;5051133;28;20101;-23
2021/04/17 00:21:00;;;;;;;11.63;8.75;;;;;;;10.22;67.80;100405.50;5068850;28;20032;-22
2021/04/17 00:23:26;;;;;;;14.75;9.35;;;;;;;9.85;68.18;100415.81;5069217;28;20031;-22
2021/04/17 00:25:51;;;;;;;12.93;9.07;;;;;;;9.75;69.60;100415.38;5069024;28;20044;-23
2021/04/17 00:28:17;;;;;;;13.65;9.55;;;;;;;10.08;69.83;100421.72;5068415;28;20033;-22
2021/04/17 00:30:42;;;;;;;13.52;8.68;;;;;;;9.67;70.19;100420.09;5068579;28;20560;-22
2021/04/17 00:33:08;;;;;;;13.82;9.70;;;;;;;9.89;69.74;100405.56;5068710;28;20028;-23
2021/04/17 00:35:33;;;;;;;15.27;9.45;;;;;;;10.06;68.75;100396.09;5068696;28;20051;-22
2021/04/17 00:37:59;;;;;;;12.98;10.60;;;;;;;10.66;67.00;100405.81;5068607;28;20032;-23
2021/04/17 00:40:25;;;;;;;13.20;9.60;;;;;;;10.43;66.87;100396.47;5068357;28;20490;-23
2021/04/17 00:42:50;;;;;;;14.63;10.15;;;;;;;10.25;67.09;100389.09;5068341;28;20025;-23
2021/04/17 00:45:16;;;;;;;13.32;9.98;;;;;;;9.75;68.28;100382.63;5068472;28;20036;-23
2021/04/17 00:47:41;;;;;;;13.15;10.07;;;;;;;9.73;69.01;100379.34;5068398;28;20031;-23
2021/04/17 00:50:08;;;;;;;13.52;10.07;;;;;;;9.44;70.12;100392.84;5050174;28;20046;-21
2021/04/17 00:52:33;;;;;;;12.13;9.93;;;;;;;9.28;71.16;100397.75;5068671;28;20108;-22
2021/04/17 00:54:59;;;;;;;16.13;10.25;;;;;;;9.39;69.99;100379.31;5068526;28;20182;-23
2021/04/17 00:57:25;;;;;;;16.05;11.38;;;;;;;9.64;71.15;100392.88;5068120;28;20408;-23
2021/04/17 00:59:50;;;;;;;12.57;10.25;;;;;;;9.39;70.74;100389.94;5068201;28;20030;-22
2021/04/17 01:02:18;;;;;;;13.20;10.57;;;;;;;9.76;69.43;100397.56;5050149;28;20032;-23
2021/04/17 01:04:44;;;;;;;14.52;10.65;;;;;;;9.55;70.46;100380.75;5050576;28;20135;-22
2021/04/17 01:07:32;;;;;;;17.45;11.57;;;;;;;9.68;69.69;100366.63;5050322;28;20039;-23
2021/04/17 01:10:07;;;;;;;15.75;10.15;;;;;;;10.02;67.85;100386.06;5033927;28;20040;-22
2021/04/17 01:12:34;;;;;;;14.77;11.02;;;;;;;9.86;69.08;100380.13;5067876;28;20545;-23
2021/04/17 01:14:59;;;;;;;16.25;11.10;;;;;;;9.65;69.31;100399.81;5067700;28;20036;-22
2021/04/17 01:17:25;;;;;;;16.58;11.50;;;;;;;9.78;69.86;100382.19;5049766;28;20029;-21
2021/04/17 01:20:16;;;;;;;15.63;11.15;;;;;;;9.83;69.13;100374.41;5068194;28;20047;-23
2021/04/17 01:22:43;;;;;;;15.05;11.20;;;;;;;9.92;68.71;100388.34;5067434;28;20103;-22
2021/04/17 01:25:13;;;;;;;15.75;11.13;;;;;;;9.68;70.02;100382.59;5033368;28;20047;-23
2021/04/17 01:27:38;;;;;;;15.13;11.15;;;;;;;9.96;68.50;100371.72;5033720;28;20027;-23
2021/04/17 01:30:23;;;;;;;15.93;11.18;;;;;;;10.13;67.73;100374.75;5067590;28;20119;-22
2021/04/17 01:32:48;;;;;;;14.10;11.23;;;;;;;9.99;69.23;100367.81;5067774;28;20024;-22
2021/04/17 01:35:17;;;;;;;17.75;11.70;;;;;;;9.79;68.81;100362.53;5049747;28;20028;-23
2021/04/17 01:37:49;;;;;;;15.23;10.85;;;;;;;9.70;69.69;100369.09;5067342;28;20412;-21
2021/04/17 01:40:15;;;;;;;15.15;11.45;;;;;;;9.46;71.33;100355.38;5067287;28;20461;-23
2021/04/17 01:42:40;;;;;;;15.70;11.65;;;;;;;9.50;70.60;100369.91;5067669;28;20035;-23
2021/04/17 01:45:06;;;;;;;17.38;12.30;;;;;;;9.71;70.53;100370.75;5033003;28;20029;-23
2021/04/17 01:47:32;;;;;;;17.25;12.43;;;;;;;9.52;70.58;100383.84;5033194;28;20038;-22
2021/04/17 01:49:57;;;;;;;16.10;11.57;;;;;;;9.59;69.89;100375.84;5033013;28;20408;-22
2021/04/17 01:52:23;;;;;;;16.10;12.02;;;;;;;9.47;70.71;100365.00;5067212;28;20099;-23
2021/04/17 01:54:52;;;;;;;18.98;13.52;;;;;;;9.83;69.45;100359.25;5032759;28;20130;-23
2021/04/17 01:57:20;;;;;;;18.90;12.38;;;;;;;9.52;71.05;100373.19;5067607;28;20032;-22
2021/04/17 01:59:45;;;;;;;15.38;11.63;;;;;;;9.45;70.80;100377.69;5049396;28;20028;-22
2021/04/17 02:02:11;;;;;;;14.93;11.68;;;;;;;9.47;71.34;100391.59;5032737;28;20033;-23
2021/04/17 02:04:36;;;;;;;16.88;12.05;;;;;;;9.23;72.46;100363.72;5032426;28;20038;-23
2021/04/17 02:07:03;;;;;;;16.10;12.75;;;;;;;9.25;72.39;100369.66;5049295;28;20107;-22
2021/04/17 02:09:28;;;;;;;14.20;11.15;;;;;;;8.89;73.39;100370.00;5067417;28;20780;-23
2021/04/17 02:11:54;;;;;;;14.68;11.85;;;;;;;8.84;74.15;100381.25;5067074;28;20036;-23
2021/04/17 02:14:19;;;;;;;15.05;11.80;;;;;;;8.87;74.14;100382.66;5049012;28;20389;-24
2021/04/17 02:17:04;;;;;;;15.48;11.50;;;;;;;8.95;74.33;100398.44;5032332;28;20424;-23
2021/04/17 02:20:05;;;;;;;15.00;12.00;;;;;;;8.90;74.34;100384.94;5048929;28;20021;-23
2021/04/17 02:22:31;;;;;;;15.13;11.65;;;;;;;8.97;74.19;100391.09;5051780;28;20024;-22
2021/04/17 02:24:57;;;;;;;17.23;11.70;;;;;;;8.94;74.50;100407.47;5032661;28;20241;-23
2021/04/17 02:27:22;;;;;;;18.98;13.70;;;;;;;9.01;73.78;100392.31;5033004;28;20033;-23
2021/04/17 02:29:52;;;;;;;19.48;14.30;;;;;;;9.14;74.27;100373.75;5053105;28;20053;-22
2021/04/17 02:32:18;;;;;;;22.13;14.20;;;;;;;9.52;72.40;100370.53;5071003;28;20039;-22
2021/04/17 02:34:43;;;;;;;21.80;16.10;;;;;;;9.74;72.91;100362.31;5071048;28;20024;-23
2021/04/17 02:37:09;;;;;;;22.75;15.50;;;;;;;10.09;71.29;100356.75;5071249;28;20568;-21
2021/04/17 02:39:34;;;;;;;20.13;14.25;;;;;;;9.90;71.93;100361.91;5053010;28;20032;-23
2021/04/17 02:42:00;;;;;;;21.38;14.98;;;;;;;9.86;72.52;100363.34;5070926;28;20060;-23
2021/04/17 02:44:26;;;;;;;20.27;15.15;;;;;;;9.56;72.74;100358.44;5070500;28;20031;-22
2021/04/17 02:46:51;;;;;;;21.25;15.15;;;;;;;9.57;72.08;100360.06;5070578;28;20036;-23
2021/04/17 02:49:17;;;;;;;19.55;14.98;;;;;;;9.73;71.12;100339.41;5070673;28;20028;-23
2021/04/17 02:51:42;;;;;;;17.90;13.13;;;;;;;9.44;71.88;100360.09;5070185;28;20041;-23
2021/04/17 02:54:08;;;;;;;17.55;12.15;;;;;;;9.50;70.60;100342.47;5070271;28;20028;-22
2021/04/17 02:56:33;;;;;;;19.80;13.50;;;;;;;9.58;71.19;100363.53;5070684;28;20072;-23
2021/04/17 02:58:59;;;;;;;17.88;14.35;;;;;;;9.44;71.06;100352.91;5070341;28;20466;-23
2021/04/17 03:01:24;;;;;;;29.50;19.48;;;;;;;9.29;71.58;100372.75;5070413;28;20028;-23
2021/04/17 03:03:50;;;;;;;18.67;13.80;;;;;;;9.07;71.16;100359.59;5070584;28;20029;-23
2021/04/17 03:06:15;;;;;;;31.05;19.50;;;;;;;8.91;71.77;100370.63;5070035;28;20111;-22
2021/04/17 03:08:41;;;;;;;16.63;13.68;;;;;;;8.39;73.80;100373.66;5070505;28;20033;-23
2021/04/17 03:11:07;;;;;;;26.42;18.08;;;;;;;7.85;76.66;100358.44;5070133;28;20033;-23
2021/04/17 03:13:32;;;;;;;28.52;20.77;;;;;;;7.75;75.85;100376.53;5052434;28;20123;-22
2021/04/17 03:15:58;;;;;;;35.78;25.13;;;;;;;8.19;75.91;100378.03;5070362;28;20129;-23
2021/04/17 03:18:23;;;;;;;45.83;30.63;;;;;;;8.16;75.77;100373.13;5069816;28;20039;-23
2021/04/17 03:20:49;;;;;;;21.13;14.93;;;;;;;8.30;75.83;100374.84;5052134;28;20024;-23
2021/04/17 03:23:15;;;;;;;19.67;14.38;;;;;;;8.42;75.11;100369.84;5069996;28;20024;-23
2021/04/17 03:25:40;;;;;;;20.80;14.68;;;;;;;8.39;75.65;100360.38;5069865;28;20035;-23
2021/04/17 03:28:06;;;;;;;100.80;48.08;;;;;;;8.52;74.54;100382.75;5070398;28;20040;-23
2021/04/17 03:30:32;;;;;;;277.60;129.90;;;;;;;8.60;74.22;100379.91;5070065;28;20055;-23
2021/04/17 03:32:59;;;;;;;51.53;28.20;;;;;;;8.57;73.73;100386.44;5069859;28;20411;-23
2021/04/17 03:35:24;;;;;;;21.35;15.77;;;;;;;8.44;76.22;100391.72;5069866;28;20044;-23
2021/04/17 03:37:50;;;;;;;48.90;30.85;;;;;;;8.56;75.21;100405.25;5069694;28;20090;-23
2021/04/17 03:40:16;;;;;;;67.90;41.08;;;;;;;8.82;74.07;100389.41;5067948;28;20492;-23
2021/04/17 03:42:41;;;;;;;177.80;99.63;;;;;;;8.93;73.75;100389.84;5069543;28;20457;-22
2021/04/17 03:45:07;;;;;;;46.17;31.48;;;;;;;9.03;73.74;100390.28;5069666;28;20055;-22
2021/04/17 03:47:34;;;;;;;29.65;19.42;;;;;;;8.96;73.77;100389.47;5051343;28;20469;-22
2021/04/17 03:50:00;;;;;;;22.27;15.63;;;;;;;9.04;72.59;100370.66;5069778;28;20102;-22
2021/04/17 03:52:26;;;;;;;49.45;31.83;;;;;;;8.73;74.16;100385.28;5050546;28;20519;-22
2021/04/17 03:54:51;;;;;;;27.75;18.83;;;;;;;8.48;74.17;100363.72;5068991;28;20111;-22
2021/04/17 03:57:17;;;;;;;38.25;26.38;;;;;;;8.79;74.83;100387.16;5069800;28;20032;-22
2021/04/17 03:59:43;;;;;;;39.28;30.52;;;;;;;8.84;73.69;100362.63;5069786;28;20033;-23
2021/04/17 04:02:09;;;;;;;34.65;25.88;;;;;;;9.07;74.17;100375.56;5051120;28;20035;-22
2021/04/17 04:04:34;;;;;;;28.30;19.52;;;;;;;8.81;74.38;100368.34;5069311;28;20111;-23
2021/04/17 04:07:00;;;;;;;26.45;18.63;;;;;;;8.60;74.72;100375.44;5051380;28;20036;-23
2021/04/17 04:09:25;;;;;;;29.08;22.10;;;;;;;9.16;73.50;100379.69;5069047;28;20040;-23
2021/04/17 04:11:51;;;;;;;28.98;20.88;;;;;;;9.14;73.83;100370.28;5069243;28;20028;-23
2021/04/17 04:14:17;;;;;;;25.30;18.77;;;;;;;8.77;74.61;100354.63;5069092;28;20068;-22
2021/04/17 04:16:42;;;;;;;60.38;34.95;;;;;;;8.70;75.36;100369.72;5069235;28;20033;-23
2021/04/17 04:19:08;;;;;;;106.88;44.40;;;;;;;8.69;76.03;100376.06;5068900;28;20068;-23
2021/04/17 04:21:33;;;;;;;27.63;16.45;;;;;;;8.68;74.67;100377.09;5068956;28;20032;-22
2021/04/17 04:23:59;;;;;;;20.20;14.77;;;;;;;8.61;74.30;100362.97;5050842;28;20519;-22
2021/04/17 04:26:24;;;;;;;21.83;14.95;;;;;;;8.53;74.83;100376.41;5068747;28;20032;-22
2021/04/17 04:28:50;;;;;;;23.05;15.50;;;;;;;8.57;75.48;100380.31;5068921;28;20043;-22
2021/04/17 04:31:15;;;;;;;31.88;20.83;;;;;;;8.51;75.60;100359.84;5051437;28;20045;-21
2021/04/17 04:33:41;;;;;;;36.38;22.73;;;;;;;8.36;76.22;100378.56;5069069;28;20040;-22
2021/04/17 04:36:07;;;;;;;27.98;19.00;;;;;;;8.42;75.26;100367.19;5068846;28;20037;-23
2021/04/17 04:38:32;;;;;;;25.25;16.85;;;;;;;8.54;75.44;100370.06;5050508;28;20036;-23
2021/04/17 04:40:58;;;;;;;24.83;17.10;;;;;;;8.55;74.84;100371.72;5068417;28;20488;-23
2021/04/17 04:43:24;;;;;;;39.20;26.55;;;;;;;9.00;74.43;100366.75;5068421;28;20033;-23
2021/04/17 04:45:50;;;;;;;29.58;21.30;;;;;;;8.82;74.43;100360.16;5068543;28;20033;-23
2021/04/17 04:48:15;;;;;;;57.05;33.85;;;;;;;8.94;74.02;100372.88;5050286;28;20099;-22
2021/04/17 04:50:41;;;;;;;42.00;27.15;;;;;;;9.27;72.36;100361.50;5046720;28;20103;-22
2021/04/17 04:53:07;;;;;;;37.97;23.98;;;;;;;9.39;72.52;100363.34;5048248;28;20033;-23
2021/04/17 04:55:32;;;;;;;49.20;30.63;;;;;;;9.03;72.75;100363.69;5048243;28;20033;-22
2021/04/17 04:57:58;;;;;;;56.22;33.05;;;;;;;8.95;73.05;100372.69;5048130;28;20025;-23
2021/04/17 05:00:24;;;;;;;34.92;22.42;;;;;;;9.06;73.24;100368.63;5046668;28;20520;-23
2021/04/17 05:02:49;;;;;;;32.92;21.98;;;;;;;9.30;72.39;100369.09;5047064;28;20536;-22
2021/04/17 05:05:15;;;;;;;45.63;31.00;;;;;;;9.35;71.67;100382.59;5048381;28;20037;-23
2021/04/17 05:07:42;;;;;;;34.28;23.58;;;;;;;9.77;70.45;100385.91;5048302;28;20054;-22
2021/04/17 05:10:08;;;;;;;24.27;17.80;;;;;;;9.48;70.89;100366.63;5047956;28;20025;-22
2021/04/17 05:12:33;;;;;;;26.73;19.17;;;;;;;9.64;71.37;100390.19;5048164;28;20043;-21
2021/04/17 05:14:59;;;;;;;25.67;18.75;;;;;;;9.73;70.45;100382.00;5048420;28;20035;-22
2021/04/17 05:17:25;;;;;;;31.60;23.75;;;;;;;9.83;71.23;100406.38;5047190;28;20044;-23
2021/04/17 05:19:52;;;;;;;27.40;20.17;;;;;;;9.59;71.75;100405.97;5047643;28;20017;-23
2021/04/17 05:22:18;;;;;;;49.08;31.92;;;;;;;9.52;71.45;100413.13;5047531;28;20485;-22
2021/04/17 05:24:43;;;;;;;70.13;42.55;;;;;;;9.54;72.68;100407.59;5047724;28;20036;-23
2021/04/17 05:27:09;;;;;;;43.10;28.90;;;;;;;9.20;72.09;100402.22;5047752;28;20536;-23
2021/04/17 05:29:35;;;;;;;42.17;28.63;;;;;;;8.79;74.09;100399.66;5047595;28;20037;-23
2021/04/17 05:32:00;;;;;;;45.90;31.13;;;;;;;8.39;75.84;100381.63;5047684;28;20044;-23
2021/04/17 05:34:26;;;;;;;44.05;32.05;;;;;;;8.31;76.91;100388.94;5047447;28;20504;-23
2021/04/17 05:36:51;;;;;;;36.42;23.27;;;;;;;8.20;76.71;100385.00;5047379;28;20420;-23
2021/04/17 05:39:17;;;;;;;25.92;19.38;;;;;;;7.98;77.20;100392.22;5047373;28;20029;-22
2021/04/17 05:41:42;;;;;;;40.65;30.75;;;;;;;8.20;77.12;100382.34;5047473;28;20080;-23
2021/04/17 05:44:11;;;;;;;28.40;21.85;;;;;;;8.30;77.03;100380.16;5047427;28;20457;-22
2021/04/17 05:46:39;;;;;;;;;;;;;;;8.41;76.47;100387.59;5047890;28;20029;-23
2021/04/17 05:49:05;;;;;;;27.88;20.17;;;;;;;8.62;76.66;100377.88;5047236;28;19931;-23
2021/04/17 05:51:32;;;;;;;25.00;18.58;;;;;;;8.66;75.60;100357.84;5059612;28;20044;-23
2021/04/17 05:53:58;;;;;;;25.77;18.07;;;;;;;8.57;75.65;100367.03;5049278;28;20032;-23
2021/04/17 05:56:24;;;;;;;28.10;20.60;;;;;;;8.74;76.77;100364.84;5067112;28;20710;-23
2021/04/17 05:58:49;;;;;;;30.05;20.20;;;;;;;8.02;77.64;100351.78;5067301;28;20039;-21
2021/04/17 06:01:15;;;;;;;27.60;18.35;;;;;;;7.92;78.21;100356.63;5067227;28;20131;-22
2021/04/17 06:03:40;;;;;;;27.33;20.48;;;;;;;7.99;79.10;100367.31;5066448;28;20869;-23
2021/04/17 06:06:06;;;;;;;22.42;16.48;;;;;;;7.68;79.48;100362.38;5049132;28;20373;-20
2021/04/17 06:08:32;;;;;;;37.85;24.92;;;;;;;7.87;80.20;100369.69;5049312;28;20583;-23
2021/04/17 06:10:57;;;;;;;62.33;36.55;;;;;;;8.02;78.93;100367.72;5049481;28;20114;-23
2021/04/17 06:13:23;;;;;;;63.55;36.95;;;;;;;7.85;80.13;100377.03;5067035;28;20461;-23
2021/04/17 06:15:49;;;;;;;69.00;36.97;;;;;;;7.80;80.05;100374.09;5067042;28;20412;-23
2021/04/17 06:18:14;;;;;;;57.50;32.70;;;;;;;7.94;79.71;100364.41;5066754;28;20044;-23
2021/04/17 06:20:40;;;;;;;129.10;61.92;;;;;;;8.02;80.70;100361.59;5066956;28;20104;-23
2021/04/17 06:23:06;;;;;;;44.72;30.02;;;;;;;8.05;80.08;100356.72;5066956;28;20060;-22
2021/04/17 06:25:31;;;;;;;45.60;27.75;;;;;;;8.18;78.90;100360.47;5067000;28;20469;-22
2021/04/17 06:27:58;;;;;;;183.30;74.65;;;;;;;7.88;80.87;100352.72;5066867;28;20036;-22
2021/04/17 06:30:24;;;;;;;48.25;26.42;;;;;;;7.95;80.95;100353.59;5066664;28;20029;-22
2021/04/17 06:32:49;;;;;;;56.72;32.03;;;;;;;8.07;80.08;100358.34;5066799;28;20029;-23
2021/04/17 06:35:15;;;;;;;36.38;22.30;;;;;;;8.25;78.59;100356.00;5048993;28;20071;-23
2021/04/17 06:37:41;;;;;;;53.33;30.00;;;;;;;8.27;78.01;100348.66;5066680;28;20166;-27
2021/04/17 06:40:07;;;;;;;104.03;47.35;;;;;;;8.41;78.92;100345.06;5048872;28;20029;-19
2021/04/17 06:42:32;;;;;;;112.55;55.72;;;;;;;8.34;79.18;100340.75;5067159;28;20028;-22
2021/04/17 06:44:59;;;;;;;76.40;43.63;;;;;;;8.28;79.30;100349.50;5066776;28;20118;-21
2021/04/17 06:47:24;;;;;;;58.28;29.52;;;;;;;8.44;78.47;100352.66;5032394;28;20036;-21
2021/04/17 06:49:50;;;;;;;157.88;67.10;;;;;;;8.60;78.17;100345.34;5049042;28;20033;-21
2021/04/17 06:52:15;;;;;;;138.18;51.33;;;;;;;8.79;76.66;100347.28;5031832;28;20051;-22
2021/04/17 06:54:41;;;;;;;60.78;28.85;;;;;;;8.33;77.68;100326.59;5048689;28;20032;-22
2021/04/17 06:57:07;;;;;;;107.88;44.53;;;;;;;8.35;78.37;100339.72;5048827;28;20046;-22
2021/04/17 06:59:33;;;;;;;187.20;76.07;;;;;;;8.38;78.89;100347.28;5066857;28;20423;-22
2021/04/17 07:01:59;;;;;;;130.20;51.72;;;;;;;8.37;78.88;100354.44;5066501;28;20126;-22
2021/04/17 07:04:25;;;;;;;91.90;40.70;;;;;;;8.41;77.73;100360.22;5048330;28;20419;-22
2021/04/17 07:06:52;;;;;;;89.22;39.45;;;;;;;8.27;78.85;100353.97;5066558;28;20037;-22
2021/04/17 07:09:18;;;;;;;63.10;33.08;;;;;;;8.43;78.61;100358.97;5066773;28;20032;-22
2021/04/17 07:11:43;;;;;;;52.88;31.00;;;;;;;8.77;77.52;100359.94;5032090;28;20035;-23
2021/04/17 07:14:18;;;;;;;25.88;17.77;;;;;;;8.22;77.88;100353.75;5049853;28;20028;-21
2021/04/17 07:17:00;;;;;;;30.95;23.30;;;;;;;8.49;78.47;100361.88;5070170;28;20040;-22
2021/04/17 07:19:54;;;;;;;38.97;26.80;;;;;;;8.64;76.66;100360.72;5069827;28;20031;-22
2021/04/17 07:22:26;;;;;;;36.83;24.10;;;;;;;8.26;78.77;100362.97;5069982;28;20409;-21
2021/04/17 07:25:15;;;;;;;32.55;19.65;;;;;;;8.15;78.12;100350.22;5069938;28;20093;-22
2021/04/17 07:27:53;;;;;;;70.60;37.92;;;;;;;8.38;77.92;100348.13;5054709;28;20079;-22
2021/04/17 07:30:19;;;;;;;28.67;20.58;;;;;;;8.57;76.26;100361.72;5070191;28;20024;-22
2021/04/17 07:32:48;;;;;;;28.42;21.35;;;;;;;8.64;75.98;100346.59;5069875;28;20037;-22
2021/04/17 07:35:15;;;;;;;42.55;35.40;;;;;;;8.77;76.33;100359.94;5069774;28;20032;-22
2021/04/17 07:37:42;;;;;;;33.55;29.83;;;;;;;8.30;77.27;100347.47;5069728;28;20029;-22
2021/04/17 07:40:26;;;;;;;22.83;18.73;;;;;;;8.37;77.24;100343.78;5069372;28;20025;-21
2021/04/17 07:42:54;;;;;;;28.77;21.98;;;;;;;8.23;77.64;100347.41;5069702;28;20028;-22
2021/04/17 07:45:23;;;;;;;22.80;15.90;;;;;;;8.08;77.48;100339.56;5069860;28;20033;-22
2021/04/17 07:47:49;;;;;;;23.77;17.48;;;;;;;8.40;76.95;100337.28;5069558;28;20428;-22
2021/04/17 07:50:15;;;;;;;23.40;18.10;;;;;;;8.59;77.31;100347.19;5068954;28;20044;-22
2021/04/17 07:52:41;;;;;;;17.60;12.65;;;;;;;8.53;75.04;100341.88;5051623;28;20032;-22
2021/04/17 07:55:08;;;;;;;24.15;16.33;;;;;;;8.65;75.44;100345.59;5069265;28;20090;-22
2021/04/17 07:57:37;;;;;;;19.67;14.55;;;;;;;8.97;75.21;100343.22;5069557;28;20077;-22
2021/04/17 08:00:07;;;;;;;30.67;21.25;;;;;;;9.20;74.36;100346.34;5069293;28;20039;-22
2021/04/17 08:02:33;;;;;;;30.63;21.00;;;;;;;9.10;74.14;100348.56;5069250;28;20032;-22
2021/04/17 08:04:59;;;;;;;31.77;21.98;;;;;;;9.16;74.22;100344.28;5051408;28;20028;-22
2021/04/17 08:07:24;;;;;;;35.95;21.83;;;;;;;9.17;73.55;100349.38;5069178;28;20051;-22
2021/04/17 08:09:50;;;;;;;25.58;17.30;;;;;;;9.19;71.91;100347.38;5069253;28;20090;-22
2021/04/17 08:12:16;;;;;;;29.63;21.23;;;;;;;9.24;73.58;100334.25;5034501;28;20028;-22
2021/04/17 08:14:42;;;;;;;32.53;23.42;;;;;;;9.01;72.66;100317.84;5051257;28;20468;-22
2021/04/17 08:17:08;;;;;;;21.67;15.07;;;;;;;9.11;72.46;100334.22;5051179;28;20086;-22
2021/04/17 08:19:33;;;;;;;29.15;19.58;;;;;;;9.24;73.09;100307.66;5051486;28;20044;-22
2021/04/17 08:21:59;;;;;;;32.50;23.98;;;;;;;9.04;72.54;100318.25;5068939;28;20108;-22
2021/04/17 08:24:26;;;;;;;22.13;15.98;;;;;;;9.35;72.13;100327.50;5068875;28;20052;-21
2021/04/17 08:26:57;;;;;;;23.83;15.60;;;;;;;9.24;71.95;100307.66;5048305;28;20028;-21
2021/04/17 08:29:41;;;;;;;18.30;13.98;;;;;;;9.68;72.50;100323.19;5038827;28;20119;-22
2021/04/17 08:32:07;;;;;;;21.63;14.95;;;;;;;9.71;70.76;100299.66;5055349;28;20024;-20
2021/04/17 08:34:32;;;;;;;18.05;13.80;;;;;;;10.00;70.82;100306.34;5058266;28;20047;-22
2021/04/17 08:37:05;;;;;;;16.00;12.90;;;;;;;10.03;68.77;100308.59;5022160;28;20094;-21
2021/04/17 08:39:33;;;;;;;17.58;13.30;;;;;;;9.91;70.07;100304.94;5054104;28;20033;-22
2021/04/17 08:41:59;;;;;;;15.02;10.82;;;;;;;10.25;69.39;100302.97;5057901;28;20491;-23
2021/04/17 08:44:30;;;;;;;16.35;11.82;;;;;;;10.25;68.53;100298.47;5056455;28;20024;-22
2021/04/17 08:46:56;;;;;;;19.08;13.27;;;;;;;10.29;70.85;100285.53;5053100;28;20024;-23
2021/04/17 08:49:29;;;;;;;20.65;13.75;;;;;;;10.52;68.58;100290.41;5057308;28;20056;-22
2021/04/17 08:52:22;;;;;;;16.90;12.38;;;;;;;10.76;69.45;100299.47;5056590;28;20531;-21
2021/04/17 08:54:54;;;;;;;17.35;11.25;;;;;;;10.75;68.50;100303.19;5055678;28;20470;-21
2021/04/17 08:57:20;;;;;;;14.18;10.13;;;;;;;10.63;67.19;100299.56;5058226;28;20032;-22
2021/04/17 08:59:56;;;;;;;13.77;10.02;;;;;;;10.72;66.52;100292.94;5057831;28;20094;-21
2021/04/17 09:02:22;;;;;;;13.73;10.00;;;;;;;10.48;67.13;100291.84;5056332;28;20033;-21
2021/04/17 09:05:07;;;;;;;14.10;9.82;;;;;;;11.01;65.75;100290.72;5058423;28;20744;-22
2021/04/17 09:07:37;;;;;;;14.40;9.38;;;;;;;10.85;66.36;100255.53;5054218;28;20039;-22
2021/04/17 09:10:22;;;;;;;13.20;9.45;;;;;;;11.02;65.27;100284.34;5055811;28;20029;-23
2021/04/17 09:13:07;;;;;;;12.40;9.43;;;;;;;11.18;66.66;100275.81;5058562;28;20484;-22
2021/04/17 09:15:52;;;;;;;16.90;12.10;;;;;;;11.31;65.93;100264.19;5027852;28;20018;-22
2021/04/17 09:18:33;;;;;;;15.07;11.88;;;;;;;11.11;65.69;100269.69;5027908;28;20813;-22
2021/04/17 09:21:21;;;;;;;15.07;11.52;;;;;;;11.31;65.99;100242.03;5030693;28;20090;-22
2021/04/17 09:23:52;;;;;;;13.35;9.02;;;;;;;11.28;64.90;100253.97;5047425;28;20052;-22
2021/04/17 09:26:33;;;;;;;10.52;8.88;;;;;;;10.91;64.55;100261.00;5030364;28;20029;-20
2021/04/17 09:29:17;;;;;;;17.35;13.85;;;;;;;11.23;65.31;100229.75;5047808;28;20032;-22
2021/04/17 09:31:45;;;;;;;14.48;11.88;;;;;;;11.61;63.77;100242.16;5047882;28;20163;-21
2021/04/17 09:34:13;;;;;;;16.63;10.63;;;;;;;11.88;63.52;100234.66;5047396;28;20091;-21
2021/04/17 09:36:39;;;;;;;13.00;10.45;;;;;;;11.92;64.63;100232.41;5047628;28;20032;-22
2021/04/17 09:39:28;;;;;;;13.85;11.00;;;;;;;11.69;63.63;100216.97;5029642;28;20287;-21
2021/04/17 09:41:55;;;;;;;15.32;10.75;;;;;;;11.43;64.32;100208.22;5047500;28;20025;-21
2021/04/17 09:44:21;;;;;;;14.70;10.50;;;;;;;11.54;64.16;100226.16;5047212;28;20043;-21
2021/04/17 09:47:02;;;;;;;13.15;8.48;;;;;;;11.03;64.10;100203.25;5047163;28;20029;-21
2021/04/17 09:49:37;;;;;;;10.98;8.27;;;;;;;11.53;63.79;100200.50;5015102;28;20040;-21
2021/04/17 09:52:03;;;;;;;12.48;8.38;;;;;;;11.20;63.25;100172.31;5047130;28;20052;-22
2021/04/17 09:54:29;;;;;;;13.27;10.30;;;;;;;11.21;63.50;100195.28;5061044;28;20393;-22
2021/04/17 09:56:54;;;;;;;13.13;10.73;;;;;;;11.19;64.32;100186.66;5067298;28;20146;-22
2021/04/17 09:59:20;;;;;;;14.05;10.23;;;;;;;10.94;63.48;100183.22;5066920;28;20408;-22
2021/04/17 10:01:52;;;;;;;14.70;9.95;;;;;;;11.33;63.71;100202.56;5067132;28;20094;-21
2021/04/17 10:04:18;;;;;;;13.40;11.10;;;;;;;11.31;65.08;100193.97;5067119;28;20036;-22
2021/04/17 10:06:43;;;;;;;17.80;13.65;;;;;;;11.29;63.61;100190.69;5045352;28;20079;-22
2021/04/17 10:09:14;;;;;;;27.33;18.77;;;;;;;11.53;63.45;100187.16;5067152;28;20032;-22
2021/04/17 10:11:41;;;;;;;25.15;21.20;;;;;;;11.02;64.46;100169.59;5067115;28;20043;-23
2021/04/17 10:14:08;;;;;;;13.98;10.48;;;;;;;11.17;65.17;100190.59;5066918;28;20104;-21
2021/04/17 10:16:39;;;;;;;13.15;9.75;;;;;;;11.30;65.06;100187.81;5049208;28;20068;-21
2021/04/17 10:19:08;;;;;;;13.65;10.90;;;;;;;11.30;65.38;100186.97;5049567;28;20476;-22
2021/04/17 10:21:34;;;;;;;13.90;10.20;;;;;;;10.93;66.59;100165.56;5067034;28;20503;-21
2021/04/17 10:24:25;;;;;;;12.38;10.50;;;;;;;11.39;65.23;100191.81;5066994;28;20024;-22
2021/04/17 10:27:07;;;;;;;13.88;10.68;;;;;;;11.69;64.38;100184.91;5067061;28;20115;-21
2021/04/17 10:29:52;;;;;;;18.30;10.82;;;;;;;11.61;63.68;100189.53;5066928;28;20025;-21
2021/04/17 10:32:19;;;;;;;11.20;8.30;;;;;;;11.63;62.85;100158.09;5048965;28;20135;-21
2021/04/17 10:34:49;;;;;;;13.95;9.82;;;;;;;11.41;62.62;100179.06;5067013;28;20025;-22
2021/04/17 10:37:19;;;;;;;14.23;11.25;;;;;;;11.20;62.86;100163.47;5066867;28;20024;-21
2021/04/17 10:40:03;;;;;;;13.55;10.00;;;;;;;11.44;63.59;100183.13;5066829;28;20025;-23
2021/04/17 10:42:47;;;;;;;13.38;10.15;;;;;;;11.24;63.57;100172.69;5066536;28;20025;-21
2021/04/17 10:45:14;;;;;;;19.45;11.73;;;;;;;11.26;64.29;100168.75;5066513;28;20029;-21
2021/04/17 10:47:40;;;;;;;14.45;9.82;;;;;;;11.09;64.10;100132.97;5066761;28;20040;-22
2021/04/17 10:50:22;;;;;;;12.88;9.55;;;;;;;11.06;64.28;100144.91;5069786;28;20055;-21
2021/04/17 10:53:03;;;;;;;13.07;9.43;;;;;;;10.85;63.88;100135.47;5070830;28;20131;-21
2021/04/17 10:55:33;;;;;;;15.48;11.52;;;;;;;11.15;63.68;100134.75;5070204;28;20443;-22
2021/04/17 10:57:59;;;;;;;13.25;10.20;;;;;;;11.36;63.60;100154.06;5070763;28;20420;-22
2021/04/17 11:00:29;;;;;;;16.65;10.05;;;;;;;11.51;62.81;100157.19;5070384;28;20809;-21
2021/04/17 11:02:55;;;;;;;14.00;10.30;;;;;;;11.62;62.26;100148.41;5070455;28;20033;-21
2021/04/17 11:05:20;;;;;;;12.18;9.35;;;;;;;11.72;63.23;100149.75;5070414;28;20035;-20
2021/04/17 11:07:46;;;;;;;15.98;11.05;;;;;;;11.64;63.29;100146.34;5070580;28;20029;-22
2021/04/17 11:10:12;;;;;;;14.98;11.02;;;;;;;11.66;63.10;100138.09;5070107;28;20021;-21
2021/04/17 11:12:38;;;;;;;23.23;13.20;;;;;;;11.64;61.63;100135.66;5070361;28;20047;-21
2021/04/17 11:15:20;;;;;;;17.73;10.70;;;;;;;11.45;63.19;100136.72;5070336;28;20038;-21
2021/04/17 11:18:08;;;;;;;13.05;8.82;;;;;;;11.54;61.92;100135.38;5070288;28;20036;-21
2021/04/17 11:21:02;;;;;;;15.60;12.05;;;;;;;11.38;63.44;100109.25;5069993;28;20025;-22
2021/04/17 11:23:37;;;;;;;13.05;9.45;;;;;;;11.58;61.65;100130.41;5051613;28;20047;-21